<?xml version="1.0" encoding="UTF-8" standalone="no" ?>
<gpx xmlns="http://www.topografix.com/GPX/1/1" xmlns:xsi="http://www.w3.org/2001/XMLSchema-instance" xsi:schemaLocation="http://www.topografix.com/GPX/1/1 http://www.topografix.com/GPX/1/1/gpx.xsd" version="1.1" creator="VisuGPX - https://www.visugpx.com">
  <metadata>
    <name>La Baume Cornillane-La Raye (Drôme)</name>
    <desc><![CDATA[Randonnée peu difficile au départ de la Baume-Cornillane]]></desc>
  </metadata>
  <trk>
    <name><![CDATA[La Baume Cornillane-La Raye - PD]]></name>
    <trkseg>
      <trkpt lat="44.82328" lon="5.03961">
        <ele>330</ele>
        <time>2020-04-24T07:21:38.68Z</time>
      </trkpt>
      <trkpt lat="44.82305" lon="5.0395">
        <ele>326</ele>
        <time>2020-04-24T07:22:12.88Z</time>
      </trkpt>
      <trkpt lat="44.82336" lon="5.04035">
        <ele>334</ele>
        <time>2020-04-24T07:24:30.78Z</time>
      </trkpt>
      <trkpt lat="44.82362" lon="5.0412">
        <ele>356</ele>
        <time>2020-04-24T07:27:40.06Z</time>
      </trkpt>
      <trkpt lat="44.82368" lon="5.04163">
        <ele>365</ele>
        <time>2020-04-24T07:28:30.98Z</time>
      </trkpt>
      <trkpt lat="44.82365" lon="5.04183">
        <ele>368</ele>
        <time>2020-04-24T07:28:54.48Z</time>
      </trkpt>
      <trkpt lat="44.82382" lon="5.04323">
        <ele>379</ele>
        <time>2020-04-24T07:31:03.40Z</time>
      </trkpt>
      <trkpt lat="44.82379" lon="5.04346">
        <ele>380</ele>
        <time>2020-04-24T07:31:23.80Z</time>
      </trkpt>
      <trkpt lat="44.82348" lon="5.04359">
        <ele>380</ele>
        <time>2020-04-24T07:31:59.90Z</time>
      </trkpt>
      <trkpt lat="44.82338" lon="5.04355">
        <ele>380</ele>
        <time>2020-04-24T07:32:10.89Z</time>
      </trkpt>
      <trkpt lat="44.82334" lon="5.04332">
        <ele>380</ele>
        <time>2020-04-24T07:32:29.91Z</time>
      </trkpt>
      <trkpt lat="44.82315" lon="5.04302">
        <ele>380</ele>
        <time>2020-04-24T07:33:01.58Z</time>
      </trkpt>
      <trkpt lat="44.82334" lon="5.04332">
        <ele>379</ele>
        <time>2020-04-24T07:33:33.14Z</time>
      </trkpt>
      <trkpt lat="44.82337" lon="5.04357">
        <ele>379</ele>
        <time>2020-04-24T07:33:53.09Z</time>
      </trkpt>
      <trkpt lat="44.82344" lon="5.04374">
        <ele>379</ele>
        <time>2020-04-24T07:34:09.09Z</time>
      </trkpt>
      <trkpt lat="44.82352" lon="5.04385">
        <ele>379</ele>
        <time>2020-04-24T07:34:21.55Z</time>
      </trkpt>
      <trkpt lat="44.82452" lon="5.0436">
        <ele>380</ele>
        <time>2020-04-24T07:36:17.57Z</time>
      </trkpt>
      <trkpt lat="44.82475" lon="5.04382">
        <ele>381</ele>
        <time>2020-04-24T07:36:49.50Z</time>
      </trkpt>
      <trkpt lat="44.82518" lon="5.04407">
        <ele>382</ele>
        <time>2020-04-24T07:37:43.95Z</time>
      </trkpt>
      <trkpt lat="44.82537" lon="5.0443">
        <ele>383</ele>
        <time>2020-04-24T07:38:13.32Z</time>
      </trkpt>
      <trkpt lat="44.8255" lon="5.04489">
        <ele>384</ele>
        <time>2020-04-24T07:39:03.11Z</time>
      </trkpt>
      <trkpt lat="44.82545" lon="5.04563">
        <ele>384</ele>
        <time>2020-04-24T07:40:01.80Z</time>
      </trkpt>
      <trkpt lat="44.82551" lon="5.04573">
        <ele>384</ele>
        <time>2020-04-24T07:40:12.21Z</time>
      </trkpt>
      <trkpt lat="44.82579" lon="5.04586">
        <ele>384</ele>
        <time>2020-04-24T07:40:45.36Z</time>
      </trkpt>
      <trkpt lat="44.82603" lon="5.04613">
        <ele>384</ele>
        <time>2020-04-24T07:41:20.22Z</time>
      </trkpt>
      <trkpt lat="44.82632" lon="5.04667">
        <ele>385</ele>
        <time>2020-04-24T07:42:16.64Z</time>
      </trkpt>
      <trkpt lat="44.82636" lon="5.04752">
        <ele>388</ele>
        <time>2020-04-24T07:43:32.71Z</time>
      </trkpt>
      <trkpt lat="44.82634" lon="5.04763">
        <ele>389</ele>
        <time>2020-04-24T07:43:43.10Z</time>
      </trkpt>
      <trkpt lat="44.82585" lon="5.04934">
        <ele>399</ele>
        <time>2020-04-24T07:46:28.32Z</time>
      </trkpt>
      <trkpt lat="44.82583" lon="5.04965">
        <ele>400</ele>
        <time>2020-04-24T07:46:55.61Z</time>
      </trkpt>
      <trkpt lat="44.82555" lon="5.05002">
        <ele>403</ele>
        <time>2020-04-24T07:47:43.21Z</time>
      </trkpt>
      <trkpt lat="44.82549" lon="5.05018">
        <ele>404</ele>
        <time>2020-04-24T07:47:59.37Z</time>
      </trkpt>
      <trkpt lat="44.82549" lon="5.05033">
        <ele>404</ele>
        <time>2020-04-24T07:48:12.85Z</time>
      </trkpt>
      <trkpt lat="44.82599" lon="5.05096">
        <ele>409</ele>
        <time>2020-04-24T07:49:37.64Z</time>
      </trkpt>
      <trkpt lat="44.82639" lon="5.05175">
        <ele>415</ele>
        <time>2020-04-24T07:51:07.60Z</time>
      </trkpt>
      <trkpt lat="44.82643" lon="5.05191">
        <ele>417</ele>
        <time>2020-04-24T07:51:22.68Z</time>
      </trkpt>
      <trkpt lat="44.82641" lon="5.05228">
        <ele>419</ele>
        <time>2020-04-24T07:51:56.71Z</time>
      </trkpt>
      <trkpt lat="44.82646" lon="5.05244">
        <ele>420</ele>
        <time>2020-04-24T07:52:12.55Z</time>
      </trkpt>
      <trkpt lat="44.82648" lon="5.05275">
        <ele>422</ele>
        <time>2020-04-24T07:52:40.40Z</time>
      </trkpt>
      <trkpt lat="44.82637" lon="5.05314">
        <ele>424</ele>
        <time>2020-04-24T07:53:16.67Z</time>
      </trkpt>
      <trkpt lat="44.82597" lon="5.05365">
        <ele>427</ele>
        <time>2020-04-24T07:54:22.65Z</time>
      </trkpt>
      <trkpt lat="44.82593" lon="5.0543">
        <ele>429</ele>
        <time>2020-04-24T07:55:20.35Z</time>
      </trkpt>
      <trkpt lat="44.82595" lon="5.05457">
        <ele>430</ele>
        <time>2020-04-24T07:55:43.71Z</time>
      </trkpt>
      <trkpt lat="44.82625" lon="5.05501">
        <ele>434</ele>
        <time>2020-04-24T07:56:47.03Z</time>
      </trkpt>
      <trkpt lat="44.82632" lon="5.05544">
        <ele>439</ele>
        <time>2020-04-24T07:57:42.51Z</time>
      </trkpt>
      <trkpt lat="44.82635" lon="5.05553">
        <ele>440</ele>
        <time>2020-04-24T07:57:54.96Z</time>
      </trkpt>
      <trkpt lat="44.82668" lon="5.05578">
        <ele>448</ele>
        <time>2020-04-24T07:59:20.12Z</time>
      </trkpt>
      <trkpt lat="44.82681" lon="5.05601">
        <ele>453</ele>
        <time>2020-04-24T08:00:06.74Z</time>
      </trkpt>
      <trkpt lat="44.82688" lon="5.05736">
        <ele>479</ele>
        <time>2020-04-24T08:03:43.66Z</time>
      </trkpt>
      <trkpt lat="44.82685" lon="5.05853">
        <ele>498</ele>
        <time>2020-04-24T08:06:25.89Z</time>
      </trkpt>
      <trkpt lat="44.82676" lon="5.05881">
        <ele>502</ele>
        <time>2020-04-24T08:07:07.98Z</time>
      </trkpt>
      <trkpt lat="44.8267" lon="5.05925">
        <ele>508</ele>
        <time>2020-04-24T08:08:03.97Z</time>
      </trkpt>
      <trkpt lat="44.82684" lon="5.05972">
        <ele>514</ele>
        <time>2020-04-24T08:09:04.28Z</time>
      </trkpt>
      <trkpt lat="44.82704" lon="5.06015">
        <ele>520</ele>
        <time>2020-04-24T08:10:05.78Z</time>
      </trkpt>
      <trkpt lat="44.82705" lon="5.06043">
        <ele>523</ele>
        <time>2020-04-24T08:10:38.37Z</time>
      </trkpt>
      <trkpt lat="44.82699" lon="5.06075">
        <ele>527</ele>
        <time>2020-04-24T08:11:17.24Z</time>
      </trkpt>
      <trkpt lat="44.82682" lon="5.06118">
        <ele>532</ele>
        <time>2020-04-24T08:12:19.55Z</time>
      </trkpt>
      <trkpt lat="44.82673" lon="5.06228">
        <ele>548</ele>
        <time>2020-04-24T08:15:04.73Z</time>
      </trkpt>
      <trkpt lat="44.82648" lon="5.06367">
        <ele>574</ele>
        <time>2020-04-24T08:19:04.35Z</time>
      </trkpt>
      <trkpt lat="44.82653" lon="5.06444">
        <ele>589</ele>
        <time>2020-04-24T08:21:19.36Z</time>
      </trkpt>
      <trkpt lat="44.82665" lon="5.06514">
        <ele>603</ele>
        <time>2020-04-24T08:23:30.50Z</time>
      </trkpt>
      <trkpt lat="44.82668" lon="5.06596">
        <ele>620</ele>
        <time>2020-04-24T08:26:04.16Z</time>
      </trkpt>
      <trkpt lat="44.8266" lon="5.06632">
        <ele>628</ele>
        <time>2020-04-24T08:27:18.49Z</time>
      </trkpt>
      <trkpt lat="44.82665" lon="5.06666">
        <ele>636</ele>
        <time>2020-04-24T08:28:34.04Z</time>
      </trkpt>
      <trkpt lat="44.82642" lon="5.06747">
        <ele>657</ele>
        <time>2020-04-24T08:31:50.42Z</time>
      </trkpt>
      <trkpt lat="44.82644" lon="5.06811">
        <ele>674</ele>
        <time>2020-04-24T08:34:26.70Z</time>
      </trkpt>
      <trkpt lat="44.8265" lon="5.06842">
        <ele>683</ele>
        <time>2020-04-24T08:35:49.09Z</time>
      </trkpt>
      <trkpt lat="44.82681" lon="5.06883">
        <ele>700</ele>
        <time>2020-04-24T08:38:27.96Z</time>
      </trkpt>
      <trkpt lat="44.82722" lon="5.06925">
        <ele>722</ele>
        <time>2020-04-24T08:41:44.51Z</time>
      </trkpt>
      <trkpt lat="44.8277" lon="5.06957">
        <ele>745</ele>
        <time>2020-04-24T08:44:57.87Z</time>
      </trkpt>
      <trkpt lat="44.82862" lon="5.07034">
        <ele>786</ele>
        <time>2020-04-24T08:50:33.20Z</time>
      </trkpt>
      <trkpt lat="44.82927" lon="5.07104">
        <ele>811</ele>
        <time>2020-04-24T08:53:57.47Z</time>
      </trkpt>
      <trkpt lat="44.82984" lon="5.07138">
        <ele>826</ele>
        <time>2020-04-24T08:56:12.60Z</time>
      </trkpt>
      <trkpt lat="44.83007" lon="5.07164">
        <ele>833</ele>
        <time>2020-04-24T08:57:12.95Z</time>
      </trkpt>
      <trkpt lat="44.83033" lon="5.07178">
        <ele>839</ele>
        <time>2020-04-24T08:58:11.04Z</time>
      </trkpt>
      <trkpt lat="44.83061" lon="5.0721">
        <ele>848</ele>
        <time>2020-04-24T08:59:27.37Z</time>
      </trkpt>
      <trkpt lat="44.83037" lon="5.07209">
        <ele>853</ele>
        <time>2020-04-24T09:00:11.74Z</time>
      </trkpt>
      <trkpt lat="44.83019" lon="5.07219">
        <ele>857</ele>
        <time>2020-04-24T09:00:48.52Z</time>
      </trkpt>
      <trkpt lat="44.83083" lon="5.07262">
        <ele>871</ele>
        <time>2020-04-24T09:02:54.88Z</time>
      </trkpt>
      <trkpt lat="44.83069" lon="5.07268">
        <ele>873</ele>
        <time>2020-04-24T09:03:17.71Z</time>
      </trkpt>
      <trkpt lat="44.83073" lon="5.07278">
        <ele>874</ele>
        <time>2020-04-24T09:03:28.60Z</time>
      </trkpt>
      <trkpt lat="44.83147" lon="5.0732">
        <ele>882</ele>
        <time>2020-04-24T09:05:13.03Z</time>
      </trkpt>
      <trkpt lat="44.83158" lon="5.07349">
        <ele>884</ele>
        <time>2020-04-24T09:05:45.24Z</time>
      </trkpt>
      <trkpt lat="44.83127" lon="5.07346">
        <ele>888</ele>
        <time>2020-04-24T09:06:33.16Z</time>
      </trkpt>
      <trkpt lat="44.83079" lon="5.07359">
        <ele>895</ele>
        <time>2020-04-24T09:07:53.14Z</time>
      </trkpt>
      <trkpt lat="44.83065" lon="5.07378">
        <ele>898</ele>
        <time>2020-04-24T09:08:25.94Z</time>
      </trkpt>
      <trkpt lat="44.83034" lon="5.07366">
        <ele>904</ele>
        <time>2020-04-24T09:09:24.74Z</time>
      </trkpt>
      <trkpt lat="44.82991" lon="5.07384">
        <ele>913</ele>
        <time>2020-04-24T09:10:43.98Z</time>
      </trkpt>
      <trkpt lat="44.82951" lon="5.07375">
        <ele>919</ele>
        <time>2020-04-24T09:11:39.28Z</time>
      </trkpt>
      <trkpt lat="44.82918" lon="5.07375">
        <ele>921</ele>
        <time>2020-04-24T09:12:16.59Z</time>
      </trkpt>
      <trkpt lat="44.82881" lon="5.07347">
        <ele>920</ele>
        <time>2020-04-24T09:13:04.82Z</time>
      </trkpt>
      <trkpt lat="44.82803" lon="5.07317">
        <ele>912</ele>
        <time>2020-04-24T09:14:40.84Z</time>
      </trkpt>
      <trkpt lat="44.82771" lon="5.07318">
        <ele>908</ele>
        <time>2020-04-24T09:15:18.02Z</time>
      </trkpt>
      <trkpt lat="44.82746" lon="5.0733">
        <ele>906</ele>
        <time>2020-04-24T09:15:51.16Z</time>
      </trkpt>
      <trkpt lat="44.82521" lon="5.07378">
        <ele>924</ele>
        <time>2020-04-24T09:20:46.93Z</time>
      </trkpt>
      <trkpt lat="44.82503" lon="5.07383">
        <ele>927</ele>
        <time>2020-04-24T09:21:11.90Z</time>
      </trkpt>
      <trkpt lat="44.8245" lon="5.07347">
        <ele>935</ele>
        <time>2020-04-24T09:22:29.76Z</time>
      </trkpt>
      <trkpt lat="44.82433" lon="5.0735">
        <ele>936</ele>
        <time>2020-04-24T09:22:53.08Z</time>
      </trkpt>
      <trkpt lat="44.82419" lon="5.07392">
        <ele>938</ele>
        <time>2020-04-24T09:23:31.23Z</time>
      </trkpt>
      <trkpt lat="44.8237" lon="5.07414">
        <ele>938</ele>
        <time>2020-04-24T09:24:29.57Z</time>
      </trkpt>
      <trkpt lat="44.8235" lon="5.07416">
        <ele>937</ele>
        <time>2020-04-24T09:24:52.45Z</time>
      </trkpt>
      <trkpt lat="44.82236" lon="5.07389">
        <ele>925</ele>
        <time>2020-04-24T09:27:10.89Z</time>
      </trkpt>
      <trkpt lat="44.82209" lon="5.07398">
        <ele>921</ele>
        <time>2020-04-24T09:27:43.17Z</time>
      </trkpt>
      <trkpt lat="44.82156" lon="5.074">
        <ele>917</ele>
        <time>2020-04-24T09:28:42.89Z</time>
      </trkpt>
      <trkpt lat="44.8212" lon="5.07416">
        <ele>915</ele>
        <time>2020-04-24T09:29:24.49Z</time>
      </trkpt>
      <trkpt lat="44.82088" lon="5.07414">
        <ele>916</ele>
        <time>2020-04-24T09:30:04.55Z</time>
      </trkpt>
      <trkpt lat="44.82062" lon="5.07421">
        <ele>919</ele>
        <time>2020-04-24T09:30:49.23Z</time>
      </trkpt>
      <trkpt lat="44.82001" lon="5.07415">
        <ele>930</ele>
        <time>2020-04-24T09:32:43.02Z</time>
      </trkpt>
      <trkpt lat="44.81992" lon="5.07429">
        <ele>933</ele>
        <time>2020-04-24T09:33:09.11Z</time>
      </trkpt>
      <trkpt lat="44.81976" lon="5.07435">
        <ele>937</ele>
        <time>2020-04-24T09:33:45.15Z</time>
      </trkpt>
      <trkpt lat="44.81906" lon="5.07436">
        <ele>954</ele>
        <time>2020-04-24T09:36:16.09Z</time>
      </trkpt>
      <trkpt lat="44.81884" lon="5.07417">
        <ele>960</ele>
        <time>2020-04-24T09:37:04.58Z</time>
      </trkpt>
      <trkpt lat="44.81864" lon="5.07408">
        <ele>964</ele>
        <time>2020-04-24T09:37:42.31Z</time>
      </trkpt>
      <trkpt lat="44.81859" lon="5.07398">
        <ele>965</ele>
        <time>2020-04-24T09:37:56.60Z</time>
      </trkpt>
      <trkpt lat="44.81828" lon="5.07389">
        <ele>970</ele>
        <time>2020-04-24T09:38:45.48Z</time>
      </trkpt>
      <trkpt lat="44.8179" lon="5.07395">
        <ele>975</ele>
        <time>2020-04-24T09:39:36.68Z</time>
      </trkpt>
      <trkpt lat="44.81748" lon="5.07395">
        <ele>978</ele>
        <time>2020-04-24T09:40:26.73Z</time>
      </trkpt>
      <trkpt lat="44.81731" lon="5.07383">
        <ele>979</ele>
        <time>2020-04-24T09:40:48.84Z</time>
      </trkpt>
      <trkpt lat="44.81636" lon="5.07374">
        <ele>982</ele>
        <time>2020-04-24T09:42:42.26Z</time>
      </trkpt>
      <trkpt lat="44.81497" lon="5.07399">
        <ele>988</ele>
        <time>2020-04-24T09:45:33.29Z</time>
      </trkpt>
      <trkpt lat="44.81472" lon="5.07419">
        <ele>991</ele>
        <time>2020-04-24T09:46:09.30Z</time>
      </trkpt>
      <trkpt lat="44.81434" lon="5.0742">
        <ele>993</ele>
        <time>2020-04-24T09:46:54Z</time>
      </trkpt>
      <trkpt lat="44.81409" lon="5.07447">
        <ele>993</ele>
        <time>2020-04-24T09:47:29.11Z</time>
      </trkpt>
      <trkpt lat="44.81387" lon="5.07446">
        <ele>993</ele>
        <time>2020-04-24T09:47:53.03Z</time>
      </trkpt>
      <trkpt lat="44.81358" lon="5.07466">
        <ele>990</ele>
        <time>2020-04-24T09:48:31.55Z</time>
      </trkpt>
      <trkpt lat="44.81353" lon="5.07458">
        <ele>990</ele>
        <time>2020-04-24T09:48:40.24Z</time>
      </trkpt>
      <trkpt lat="44.81331" lon="5.07467">
        <ele>987</ele>
        <time>2020-04-24T09:49:08.86Z</time>
      </trkpt>
      <trkpt lat="44.81305" lon="5.07456">
        <ele>983</ele>
        <time>2020-04-24T09:49:42.62Z</time>
      </trkpt>
      <trkpt lat="44.81298" lon="5.07464">
        <ele>982</ele>
        <time>2020-04-24T09:49:53.10Z</time>
      </trkpt>
      <trkpt lat="44.81268" lon="5.07454">
        <ele>978</ele>
        <time>2020-04-24T09:50:30.57Z</time>
      </trkpt>
      <trkpt lat="44.81238" lon="5.07461">
        <ele>975</ele>
        <time>2020-04-24T09:51:04.06Z</time>
      </trkpt>
      <trkpt lat="44.81172" lon="5.07451">
        <ele>975</ele>
        <time>2020-04-24T09:52:21.03Z</time>
      </trkpt>
      <trkpt lat="44.81164" lon="5.07465">
        <ele>975</ele>
        <time>2020-04-24T09:52:35.15Z</time>
      </trkpt>
      <trkpt lat="44.81141" lon="5.0748">
        <ele>977</ele>
        <time>2020-04-24T09:53:07.73Z</time>
      </trkpt>
      <trkpt lat="44.8111" lon="5.07511">
        <ele>980</ele>
        <time>2020-04-24T09:53:55.17Z</time>
      </trkpt>
      <trkpt lat="44.81075" lon="5.07528">
        <ele>982</ele>
        <time>2020-04-24T09:54:38.77Z</time>
      </trkpt>
      <trkpt lat="44.81031" lon="5.07543">
        <ele>983</ele>
        <time>2020-04-24T09:55:29.18Z</time>
      </trkpt>
      <trkpt lat="44.81013" lon="5.07542">
        <ele>982</ele>
        <time>2020-04-24T09:55:48.94Z</time>
      </trkpt>
      <trkpt lat="44.80965" lon="5.07571">
        <ele>979</ele>
        <time>2020-04-24T09:56:48.89Z</time>
      </trkpt>
      <trkpt lat="44.80939" lon="5.07571">
        <ele>976</ele>
        <time>2020-04-24T09:57:20.38Z</time>
      </trkpt>
      <trkpt lat="44.8091" lon="5.07555">
        <ele>972</ele>
        <time>2020-04-24T09:57:58.28Z</time>
      </trkpt>
      <trkpt lat="44.80902" lon="5.07564">
        <ele>971</ele>
        <time>2020-04-24T09:58:11.27Z</time>
      </trkpt>
      <trkpt lat="44.80889" lon="5.07554">
        <ele>969</ele>
        <time>2020-04-24T09:58:29.40Z</time>
      </trkpt>
      <trkpt lat="44.80876" lon="5.0757">
        <ele>966</ele>
        <time>2020-04-24T09:58:52.20Z</time>
      </trkpt>
      <trkpt lat="44.80864" lon="5.07564">
        <ele>964</ele>
        <time>2020-04-24T09:59:09.42Z</time>
      </trkpt>
      <trkpt lat="44.8084" lon="5.07567">
        <ele>960</ele>
        <time>2020-04-24T09:59:38.44Z</time>
      </trkpt>
      <trkpt lat="44.80824" lon="5.0758">
        <ele>958</ele>
        <time>2020-04-24T10:00:02.09Z</time>
      </trkpt>
      <trkpt lat="44.8077" lon="5.07569">
        <ele>950</ele>
        <time>2020-04-24T10:01:04.84Z</time>
      </trkpt>
      <trkpt lat="44.80753" lon="5.07575">
        <ele>949</ele>
        <time>2020-04-24T10:01:25.17Z</time>
      </trkpt>
      <trkpt lat="44.8069" lon="5.07579">
        <ele>947</ele>
        <time>2020-04-24T10:02:35.07Z</time>
      </trkpt>
      <trkpt lat="44.80676" lon="5.07574">
        <ele>948</ele>
        <time>2020-04-24T10:02:51.64Z</time>
      </trkpt>
      <trkpt lat="44.80653" lon="5.07581">
        <ele>949</ele>
        <time>2020-04-24T10:03:19.78Z</time>
      </trkpt>
      <trkpt lat="44.8063" lon="5.0758">
        <ele>950</ele>
        <time>2020-04-24T10:03:47.91Z</time>
      </trkpt>
      <trkpt lat="44.80588" lon="5.07603">
        <ele>953</ele>
        <time>2020-04-24T10:04:37.96Z</time>
      </trkpt>
      <trkpt lat="44.80571" lon="5.07599">
        <ele>953</ele>
        <time>2020-04-24T10:04:57.22Z</time>
      </trkpt>
      <trkpt lat="44.80487" lon="5.07619">
        <ele>949</ele>
        <time>2020-04-24T10:06:33.33Z</time>
      </trkpt>
      <trkpt lat="44.80452" lon="5.07616">
        <ele>945</ele>
        <time>2020-04-24T10:07:16.43Z</time>
      </trkpt>
      <trkpt lat="44.80413" lon="5.07593">
        <ele>939</ele>
        <time>2020-04-24T10:08:07.80Z</time>
      </trkpt>
      <trkpt lat="44.80404" lon="5.07597">
        <ele>938</ele>
        <time>2020-04-24T10:08:19.05Z</time>
      </trkpt>
      <trkpt lat="44.80387" lon="5.07582">
        <ele>936</ele>
        <time>2020-04-24T10:08:42.45Z</time>
      </trkpt>
      <trkpt lat="44.80365" lon="5.07587">
        <ele>934</ele>
        <time>2020-04-24T10:09:07.95Z</time>
      </trkpt>
      <trkpt lat="44.8031" lon="5.07573">
        <ele>930</ele>
        <time>2020-04-24T10:10:11.90Z</time>
      </trkpt>
      <trkpt lat="44.80305" lon="5.07579">
        <ele>929</ele>
        <time>2020-04-24T10:10:19.61Z</time>
      </trkpt>
      <trkpt lat="44.80268" lon="5.07556">
        <ele>926</ele>
        <time>2020-04-24T10:11:06.20Z</time>
      </trkpt>
      <trkpt lat="44.80231" lon="5.07551">
        <ele>923</ele>
        <time>2020-04-24T10:11:50.10Z</time>
      </trkpt>
      <trkpt lat="44.80206" lon="5.07539">
        <ele>919</ele>
        <time>2020-04-24T10:12:22.86Z</time>
      </trkpt>
      <trkpt lat="44.80177" lon="5.07536">
        <ele>915</ele>
        <time>2020-04-24T10:13:02.60Z</time>
      </trkpt>
      <trkpt lat="44.80164" lon="5.07544">
        <ele>912</ele>
        <time>2020-04-24T10:13:22.39Z</time>
      </trkpt>
      <trkpt lat="44.80151" lon="5.07538">
        <ele>909</ele>
        <time>2020-04-24T10:13:42.24Z</time>
      </trkpt>
      <trkpt lat="44.80129" lon="5.07541">
        <ele>905</ele>
        <time>2020-04-24T10:14:17.99Z</time>
      </trkpt>
      <trkpt lat="44.80117" lon="5.07548">
        <ele>902</ele>
        <time>2020-04-24T10:14:38.86Z</time>
      </trkpt>
      <trkpt lat="44.80002" lon="5.0751">
        <ele>873</ele>
        <time>2020-04-24T10:17:52.49Z</time>
      </trkpt>
      <trkpt lat="44.7998" lon="5.07481">
        <ele>866</ele>
        <time>2020-04-24T10:18:39.44Z</time>
      </trkpt>
      <trkpt lat="44.79959" lon="5.07463">
        <ele>861</ele>
        <time>2020-04-24T10:19:15.04Z</time>
      </trkpt>
      <trkpt lat="44.79953" lon="5.07448">
        <ele>858</ele>
        <time>2020-04-24T10:19:32.64Z</time>
      </trkpt>
      <trkpt lat="44.79906" lon="5.07423">
        <ele>849</ele>
        <time>2020-04-24T10:20:39.61Z</time>
      </trkpt>
      <trkpt lat="44.79897" lon="5.07429">
        <ele>847</ele>
        <time>2020-04-24T10:20:53.08Z</time>
      </trkpt>
      <trkpt lat="44.79869" lon="5.07417">
        <ele>843</ele>
        <time>2020-04-24T10:21:28.26Z</time>
      </trkpt>
      <trkpt lat="44.79863" lon="5.07423">
        <ele>842</ele>
        <time>2020-04-24T10:21:37.04Z</time>
      </trkpt>
      <trkpt lat="44.79803" lon="5.07439">
        <ele>835</ele>
        <time>2020-04-24T10:22:48.52Z</time>
      </trkpt>
      <trkpt lat="44.79779" lon="5.07431">
        <ele>834</ele>
        <time>2020-04-24T10:23:15.82Z</time>
      </trkpt>
      <trkpt lat="44.79754" lon="5.07377">
        <ele>832</ele>
        <time>2020-04-24T10:24:07.19Z</time>
      </trkpt>
      <trkpt lat="44.79739" lon="5.07369">
        <ele>832</ele>
        <time>2020-04-24T10:24:25.14Z</time>
      </trkpt>
      <trkpt lat="44.79726" lon="5.07349">
        <ele>833</ele>
        <time>2020-04-24T10:24:49.31Z</time>
      </trkpt>
      <trkpt lat="44.79689" lon="5.07224">
        <ele>839</ele>
        <time>2020-04-24T10:26:44.18Z</time>
      </trkpt>
      <trkpt lat="44.79696" lon="5.0721">
        <ele>840</ele>
        <time>2020-04-24T10:26:58.86Z</time>
      </trkpt>
      <trkpt lat="44.79693" lon="5.07197">
        <ele>841</ele>
        <time>2020-04-24T10:27:10.84Z</time>
      </trkpt>
      <trkpt lat="44.79782" lon="5.07251">
        <ele>842</ele>
        <time>2020-04-24T10:28:58.43Z</time>
      </trkpt>
      <trkpt lat="44.79793" lon="5.07271">
        <ele>841</ele>
        <time>2020-04-24T10:29:18.65Z</time>
      </trkpt>
      <trkpt lat="44.79817" lon="5.07286">
        <ele>838</ele>
        <time>2020-04-24T10:29:54.86Z</time>
      </trkpt>
      <trkpt lat="44.7991" lon="5.07281">
        <ele>819</ele>
        <time>2020-04-24T10:32:32.89Z</time>
      </trkpt>
      <trkpt lat="44.7992" lon="5.07274">
        <ele>816</ele>
        <time>2020-04-24T10:32:51.09Z</time>
      </trkpt>
      <trkpt lat="44.79972" lon="5.07261">
        <ele>798</ele>
        <time>2020-04-24T10:34:49.06Z</time>
      </trkpt>
      <trkpt lat="44.80065" lon="5.07221">
        <ele>764</ele>
        <time>2020-04-24T10:38:17.61Z</time>
      </trkpt>
      <trkpt lat="44.80087" lon="5.07201">
        <ele>757</ele>
        <time>2020-04-24T10:38:56.81Z</time>
      </trkpt>
      <trkpt lat="44.80168" lon="5.07163">
        <ele>740</ele>
        <time>2020-04-24T10:40:59.98Z</time>
      </trkpt>
      <trkpt lat="44.80311" lon="5.07104">
        <ele>712</ele>
        <time>2020-04-24T10:44:34.86Z</time>
      </trkpt>
      <trkpt lat="44.80333" lon="5.07086">
        <ele>706</ele>
        <time>2020-04-24T10:45:15.78Z</time>
      </trkpt>
      <trkpt lat="44.80391" lon="5.07068">
        <ele>692</ele>
        <time>2020-04-24T10:46:52.67Z</time>
      </trkpt>
      <trkpt lat="44.80412" lon="5.0704">
        <ele>685</ele>
        <time>2020-04-24T10:47:34.94Z</time>
      </trkpt>
      <trkpt lat="44.80502" lon="5.06991">
        <ele>666</ele>
        <time>2020-04-24T10:49:57.63Z</time>
      </trkpt>
      <trkpt lat="44.80556" lon="5.06926">
        <ele>651</ele>
        <time>2020-04-24T10:51:48.43Z</time>
      </trkpt>
      <trkpt lat="44.80626" lon="5.06898">
        <ele>634</ele>
        <time>2020-04-24T10:53:48.03Z</time>
      </trkpt>
      <trkpt lat="44.8066" lon="5.06873">
        <ele>624</ele>
        <time>2020-04-24T10:54:55.69Z</time>
      </trkpt>
      <trkpt lat="44.80667" lon="5.06858">
        <ele>620</ele>
        <time>2020-04-24T10:55:18.50Z</time>
      </trkpt>
      <trkpt lat="44.80677" lon="5.06798">
        <ele>608</ele>
        <time>2020-04-24T10:56:40.17Z</time>
      </trkpt>
      <trkpt lat="44.80665" lon="5.06756">
        <ele>598</ele>
        <time>2020-04-24T10:57:44.19Z</time>
      </trkpt>
      <trkpt lat="44.80656" lon="5.06679">
        <ele>581</ele>
        <time>2020-04-24T10:59:29.95Z</time>
      </trkpt>
      <trkpt lat="44.80667" lon="5.06627">
        <ele>570</ele>
        <time>2020-04-24T11:00:39.09Z</time>
      </trkpt>
      <trkpt lat="44.80685" lon="5.06613">
        <ele>564</ele>
        <time>2020-04-24T11:01:15.89Z</time>
      </trkpt>
      <trkpt lat="44.80672" lon="5.06579">
        <ele>557</ele>
        <time>2020-04-24T11:02:01.46Z</time>
      </trkpt>
      <trkpt lat="44.80627" lon="5.06524">
        <ele>542</ele>
        <time>2020-04-24T11:03:34.98Z</time>
      </trkpt>
      <trkpt lat="44.80617" lon="5.06495">
        <ele>538</ele>
        <time>2020-04-24T11:04:09.52Z</time>
      </trkpt>
      <trkpt lat="44.80621" lon="5.06446">
        <ele>531</ele>
        <time>2020-04-24T11:04:59.36Z</time>
      </trkpt>
      <trkpt lat="44.80615" lon="5.06391">
        <ele>524</ele>
        <time>2020-04-24T11:05:52.54Z</time>
      </trkpt>
      <trkpt lat="44.80581" lon="5.06302">
        <ele>512</ele>
        <time>2020-04-24T11:07:30.31Z</time>
      </trkpt>
      <trkpt lat="44.80597" lon="5.06238">
        <ele>503</ele>
        <time>2020-04-24T11:08:37.38Z</time>
      </trkpt>
      <trkpt lat="44.80619" lon="5.0619">
        <ele>496</ele>
        <time>2020-04-24T11:09:31.51Z</time>
      </trkpt>
      <trkpt lat="44.80602" lon="5.06069">
        <ele>481</ele>
        <time>2020-04-24T11:11:26.19Z</time>
      </trkpt>
      <trkpt lat="44.80614" lon="5.05903">
        <ele>463</ele>
        <time>2020-04-24T11:14:02.53Z</time>
      </trkpt>
      <trkpt lat="44.80599" lon="5.05842">
        <ele>454</ele>
        <time>2020-04-24T11:15:13.24Z</time>
      </trkpt>
      <trkpt lat="44.80564" lon="5.05775">
        <ele>440</ele>
        <time>2020-04-24T11:16:45.76Z</time>
      </trkpt>
      <trkpt lat="44.80548" lon="5.05671">
        <ele>424</ele>
        <time>2020-04-24T11:18:37.08Z</time>
      </trkpt>
      <trkpt lat="44.80547" lon="5.0564">
        <ele>420</ele>
        <time>2020-04-24T11:19:08.29Z</time>
      </trkpt>
      <trkpt lat="44.80547" lon="5.05625">
        <ele>418</ele>
        <time>2020-04-24T11:19:22.99Z</time>
      </trkpt>
      <trkpt lat="44.80559" lon="5.05589">
        <ele>414</ele>
        <time>2020-04-24T11:19:56.68Z</time>
      </trkpt>
      <trkpt lat="44.80564" lon="5.05541">
        <ele>411</ele>
        <time>2020-04-24T11:20:36.42Z</time>
      </trkpt>
      <trkpt lat="44.80549" lon="5.05456">
        <ele>406</ele>
        <time>2020-04-24T11:21:47.68Z</time>
      </trkpt>
      <trkpt lat="44.80555" lon="5.05452">
        <ele>406</ele>
        <time>2020-04-24T11:21:55.64Z</time>
      </trkpt>
      <trkpt lat="44.80571" lon="5.05412">
        <ele>403</ele>
        <time>2020-04-24T11:22:35.46Z</time>
      </trkpt>
      <trkpt lat="44.80589" lon="5.05265">
        <ele>387</ele>
        <time>2020-04-24T11:24:49.66Z</time>
      </trkpt>
      <trkpt lat="44.80591" lon="5.05201">
        <ele>380</ele>
        <time>2020-04-24T11:25:44.93Z</time>
      </trkpt>
      <trkpt lat="44.8059" lon="5.05173">
        <ele>377</ele>
        <time>2020-04-24T11:26:08.97Z</time>
      </trkpt>
      <trkpt lat="44.80638" lon="5.05133">
        <ele>373</ele>
        <time>2020-04-24T11:27:11.03Z</time>
      </trkpt>
      <trkpt lat="44.80657" lon="5.05125">
        <ele>373</ele>
        <time>2020-04-24T11:27:33.07Z</time>
      </trkpt>
      <trkpt lat="44.80675" lon="5.05104">
        <ele>373</ele>
        <time>2020-04-24T11:28:00.07Z</time>
      </trkpt>
      <trkpt lat="44.80698" lon="5.051">
        <ele>374</ele>
        <time>2020-04-24T11:28:27.29Z</time>
      </trkpt>
      <trkpt lat="44.80735" lon="5.05079">
        <ele>375</ele>
        <time>2020-04-24T11:29:14.75Z</time>
      </trkpt>
      <trkpt lat="44.80834" lon="5.05074">
        <ele>379</ele>
        <time>2020-04-24T11:31:10.82Z</time>
      </trkpt>
      <trkpt lat="44.80922" lon="5.05059">
        <ele>381</ele>
        <time>2020-04-24T11:32:54.02Z</time>
      </trkpt>
      <trkpt lat="44.8104" lon="5.04996">
        <ele>385</ele>
        <time>2020-04-24T11:35:20.99Z</time>
      </trkpt>
      <trkpt lat="44.81065" lon="5.04969">
        <ele>385</ele>
        <time>2020-04-24T11:35:55.58Z</time>
      </trkpt>
      <trkpt lat="44.81144" lon="5.04918">
        <ele>381</ele>
        <time>2020-04-24T11:37:34.08Z</time>
      </trkpt>
      <trkpt lat="44.81179" lon="5.04913">
        <ele>377</ele>
        <time>2020-04-24T11:38:15.80Z</time>
      </trkpt>
      <trkpt lat="44.81203" lon="5.04899">
        <ele>374</ele>
        <time>2020-04-24T11:38:47.68Z</time>
      </trkpt>
      <trkpt lat="44.81226" lon="5.04849">
        <ele>368</ele>
        <time>2020-04-24T11:39:40.87Z</time>
      </trkpt>
      <trkpt lat="44.81256" lon="5.0482">
        <ele>363</ele>
        <time>2020-04-24T11:40:25.57Z</time>
      </trkpt>
      <trkpt lat="44.81341" lon="5.0477">
        <ele>352</ele>
        <time>2020-04-24T11:42:15.30Z</time>
      </trkpt>
      <trkpt lat="44.81344" lon="5.04751">
        <ele>350</ele>
        <time>2020-04-24T11:42:31.89Z</time>
      </trkpt>
      <trkpt lat="44.8137" lon="5.04736">
        <ele>348</ele>
        <time>2020-04-24T11:43:04.29Z</time>
      </trkpt>
      <trkpt lat="44.81377" lon="5.04726">
        <ele>347</ele>
        <time>2020-04-24T11:43:15.63Z</time>
      </trkpt>
      <trkpt lat="44.81399" lon="5.04721">
        <ele>345</ele>
        <time>2020-04-24T11:43:40.96Z</time>
      </trkpt>
      <trkpt lat="44.81422" lon="5.04723">
        <ele>344</ele>
        <time>2020-04-24T11:44:06.57Z</time>
      </trkpt>
      <trkpt lat="44.8149" lon="5.04693">
        <ele>341</ele>
        <time>2020-04-24T11:45:25.78Z</time>
      </trkpt>
      <trkpt lat="44.81533" lon="5.04699">
        <ele>340</ele>
        <time>2020-04-24T11:46:13.80Z</time>
      </trkpt>
      <trkpt lat="44.81556" lon="5.04725">
        <ele>339</ele>
        <time>2020-04-24T11:46:46.60Z</time>
      </trkpt>
      <trkpt lat="44.81564" lon="5.04725">
        <ele>339</ele>
        <time>2020-04-24T11:46:55.21Z</time>
      </trkpt>
      <trkpt lat="44.8159" lon="5.04687">
        <ele>339</ele>
        <time>2020-04-24T11:47:37.34Z</time>
      </trkpt>
      <trkpt lat="44.81713" lon="5.04655">
        <ele>336</ele>
        <time>2020-04-24T11:49:55.55Z</time>
      </trkpt>
      <trkpt lat="44.8177" lon="5.04624">
        <ele>336</ele>
        <time>2020-04-24T11:51:03.50Z</time>
      </trkpt>
      <trkpt lat="44.81894" lon="5.0457">
        <ele>334</ele>
        <time>2020-04-24T11:53:28.27Z</time>
      </trkpt>
      <trkpt lat="44.81957" lon="5.04547">
        <ele>329</ele>
        <time>2020-04-24T11:54:41.95Z</time>
      </trkpt>
      <trkpt lat="44.81989" lon="5.04519">
        <ele>326</ele>
        <time>2020-04-24T11:55:26.15Z</time>
      </trkpt>
      <trkpt lat="44.8201" lon="5.04509">
        <ele>324</ele>
        <time>2020-04-24T11:55:51.20Z</time>
      </trkpt>
      <trkpt lat="44.82028" lon="5.0449">
        <ele>322</ele>
        <time>2020-04-24T11:56:16.85Z</time>
      </trkpt>
      <trkpt lat="44.82038" lon="5.04449">
        <ele>321</ele>
        <time>2020-04-24T11:56:50.77Z</time>
      </trkpt>
      <trkpt lat="44.82038" lon="5.04402">
        <ele>320</ele>
        <time>2020-04-24T11:57:28.12Z</time>
      </trkpt>
      <trkpt lat="44.82015" lon="5.0434">
        <ele>321</ele>
        <time>2020-04-24T11:58:26.61Z</time>
      </trkpt>
      <trkpt lat="44.82008" lon="5.0428">
        <ele>323</ele>
        <time>2020-04-24T11:59:17.42Z</time>
      </trkpt>
      <trkpt lat="44.82041" lon="5.04226">
        <ele>324</ele>
        <time>2020-04-24T12:00:15.19Z</time>
      </trkpt>
      <trkpt lat="44.82115" lon="5.04166">
        <ele>324</ele>
        <time>2020-04-24T12:01:50.18Z</time>
      </trkpt>
      <trkpt lat="44.82141" lon="5.04125">
        <ele>323</ele>
        <time>2020-04-24T12:02:33.42Z</time>
      </trkpt>
      <trkpt lat="44.82179" lon="5.04042">
        <ele>322</ele>
        <time>2020-04-24T12:03:51.29Z</time>
      </trkpt>
      <trkpt lat="44.82213" lon="5.04">
        <ele>323</ele>
        <time>2020-04-24T12:04:44.23Z</time>
      </trkpt>
      <trkpt lat="44.82296" lon="5.0393">
        <ele>327</ele>
        <time>2020-04-24T12:06:39.54Z</time>
      </trkpt>
      <trkpt lat="44.82305" lon="5.0395">
        <ele>328</ele>
        <time>2020-04-24T12:06:59.70Z</time>
      </trkpt>
      <trkpt lat="44.82326" lon="5.03959">
        <ele>328</ele>
        <time>2020-04-24T12:07:25.47Z</time>
      </trkpt>
    </trkseg>
  </trk>
</gpx>